Terminal Aerodrome Forecast
Issued by NWS Sterling, VA

Current Version | Previous Version | Graphics & Text | Print | Product List | Glossary On
Versions: 1 2 3 4 5 6 7 8 9 10 11 12 13 14 15 16 17 18 19 20 21 22 23 24
000
FTUS41 KLWX 140900 AAA
TAFDCA
TAF AMD
KDCA 140902Z 1409/1506 28006KT P6SM FEW015 SCT050 BKN090
     FM141600 23008KT P6SM VCTS BKN050CB
     FM142100 22008KT 3SM SHRA VCTS BKN050CB
     FM150000 24004KT 5SM SHRA BKN050
     FM150300 19005KT P6SM BKN090=

USA.gov is the U.S. government's official web portal to all federal, state and local government web resources and services.